Terminal Aerodrome Forecast
Issued by NWS Charleston, WV

Current Version | Previous Version | Text Only | Print | Product List | Glossary Off
Versions: 1 2 3 4 5 6 7 8 9 10 11 12 13 14 15 16 17 18 19 20 21 22 23 24 25 26 27 28

000
FTUS41 KRLX 251700
TAFPKB
TAF
KPKB 251726Z 2518/2618 22013G22KT P6SM BKN035
     FM252100 24012G23KT P6SM BKN035
     FM260100 29006KT P6SM BKN050
     FM260300 00000KT P6SM BKN050
     FM261200 VRB03KT P6SM BKN015
     FM261500 20005KT P6SM SHRA OVC015
     FM261700 28008KT 5SM SHRA BR OVC010=

USA.gov is the U.S. government's official web portal to all federal, state and local government web resources and services.